Time;durP1;ratioP1;P1;durP2;ratioP2;P2;SDS_P1;SDS_P2;PMS_P1;PMS_P2;Temp;Humidity;BMP_temperature;BMP_pressure;BME280_temperature;BME280_humidity;BME280_pressure;Samples;Min_cycle;Max_cycle;Signal;HPM_P1;HPM_P2
2021/06/27 00:04:43;;;;;;;7.63;2.40;;;24.60;36.60;;;;;;20498987;28;80672;-81
2021/06/27 00:14:45;;;;;;;3.88;1.90;;;24.70;35.90;;;;;;20555917;28;80192;-79
2021/06/27 00:24:46;;;;;;;7.20;2.38;;;24.70;36.70;;;;;;20554856;28;81874;-80
2021/06/27 00:34:48;;;;;;;6.82;2.33;;;24.70;35.80;;;;;;20561494;28;81072;-79
2021/06/27 00:44:51;;;;;;;5.30;1.95;;;24.70;35.80;;;;;;20503860;28;81215;-80
2021/06/27 00:54:53;;;;;;;5.47;2.15;;;24.60;34.80;;;;;;20473161;28;80079;-79
2021/06/27 01:04:55;;;;;;;4.53;1.50;;;24.50;34.20;;;;;;20481836;28;80817;-79
2021/06/27 01:15:00;;;;;;;4.05;1.85;;;24.40;33.90;;;;;;20479610;28;80157;-78
2021/06/27 01:25:06;;;;;;;3.83;1.70;;;24.20;34.80;;;;;;20472550;28;80783;-79
2021/06/27 01:35:20;;;;;;;3.63;1.70;;;24.10;34.60;;;;;;20491271;28;80744;-78
2021/06/27 01:45:30;;;;;;;2.40;1.40;;;23.90;34.10;;;;;;20521636;28;82112;-80
2021/06/27 01:55:47;;;;;;;3.20;1.80;;;23.90;34.50;;;;;;20488132;28;81403;-77
2021/06/27 02:06:01;;;;;;;3.10;1.60;;;23.70;34.30;;;;;;20480799;28;80683;-76
2021/06/27 02:16:20;;;;;;;5.38;1.48;;;23.60;34.00;;;;;;20472198;28;80674;-77
2021/06/27 02:26:42;;;;;;;10.17;1.40;;;23.40;34.40;;;;;;20536691;28;80417;-77
2021/06/27 02:37:03;;;;;;;4.20;1.60;;;23.30;34.50;;;;;;20549475;28;80219;-79
2021/06/27 02:47:16;;;;;;;3.72;1.42;;;23.20;35.00;;;;;;20548310;28;81835;-78
2021/06/27 02:57:41;;;;;;;3.25;1.50;;;23.10;34.90;;;;;;20501810;28;81324;-79
2021/06/27 03:08:03;;;;;;;4.40;1.70;;;23.10;35.20;;;;;;20505501;28;82728;-79
2021/06/27 03:18:17;;;;;;;3.08;1.83;;;23.00;35.90;;;;;;20545474;28;80772;-77
2021/06/27 03:28:38;;;;;;;4.85;1.70;;;22.90;36.30;;;;;;20542881;28;80250;-78
2021/06/27 03:38:54;;;;;;;6.93;2.83;;;22.70;37.20;;;;;;20544711;28;80623;-77
2021/06/27 03:49:03;;;;;;;3.33;2.00;;;22.60;36.90;;;;;;20544498;28;80465;-76
2021/06/27 03:59:11;;;;;;;3.80;2.17;;;22.40;37.10;;;;;;20539995;28;80733;-78
2021/06/27 04:09:15;;;;;;;4.90;2.50;;;22.40;37.30;;;;;;20490355;28;82103;-79
2021/06/27 04:19:22;;;;;;;6.32;2.25;;;22.40;37.50;;;;;;20457468;28;80679;-79
2021/06/27 04:29:31;;;;;;;5.45;2.38;;;22.20;37.80;;;;;;20463751;28;80646;-78
2021/06/27 04:39:36;;;;;;;6.78;2.50;;;21.90;38.60;;;;;;20463575;28;80672;-77
2021/06/27 04:49:58;;;;;;;6.03;2.33;;;21.90;38.60;;;;;;20468769;28;80789;-79
2021/06/27 05:00:03;;;;;;;5.32;2.28;;;21.90;38.80;;;;;;20517845;28;81885;-79
2021/06/27 05:10:07;;;;;;;6.72;2.40;;;21.80;39.30;;;;;;20498024;28;83818;-79
2021/06/27 05:20:11;;;;;;;4.80;2.28;;;21.80;39.40;;;;;;20472031;28;81912;-77
2021/06/27 05:30:15;;;;;;;4.30;2.35;;;21.80;39.60;;;;;;20498155;28;80845;-76
2021/06/27 05:40:18;;;;;;;3.95;2.40;;;21.90;39.50;;;;;;20547212;28;82207;-79
2021/06/27 05:50:21;;;;;;;6.65;2.70;;;21.80;39.50;;;;;;20553483;28;82348;-77
2021/06/27 06:00:23;;;;;;;7.72;2.85;;;21.80;39.50;;;;;;20547498;28;80859;-77
2021/06/27 06:10:27;;;;;;;6.75;2.47;;;21.80;39.20;;;;;;20489745;28;82022;-77
2021/06/27 06:20:30;;;;;;;4.03;2.63;;;21.80;39.10;;;;;;20465843;28;84284;-77
2021/06/27 06:30:35;;;;;;;3.90;2.30;;;21.90;38.80;;;;;;20464794;28;83367;-79
2021/06/27 06:40:40;;;;;;;6.55;2.85;;;22.00;39.40;;;;;;20513682;28;80610;-77
2021/06/27 06:50:42;;;;;;;3.55;2.22;;;22.10;39.00;;;;;;20547629;28;80707;-80
2021/06/27 07:00:45;;;;;;;4.03;2.05;;;22.20;38.20;;;;;;20547652;28;80676;-78
2021/06/27 07:10:48;;;;;;;5.75;2.67;;;22.30;37.40;;;;;;20536089;28;81915;-79
2021/06/27 07:20:51;;;;;;;4.70;2.40;;;22.40;35.90;;;;;;20537752;28;80839;-74
2021/06/27 07:30:54;;;;;;;2.75;1.42;;;22.60;34.60;;;;;;20536456;28;80344;-78
2021/06/27 07:40:56;;;;;;;;;;;22.70;33.50;;;;;;20531925;28;81239;-72
2021/06/27 07:51:00;;;;;;;3.43;1.30;;;22.70;33.40;;;;;;20575294;28;82185;-73
2021/06/27 08:01:02;;;;;;;5.15;1.70;;;22.90;32.90;;;;;;20538928;28;80419;-73
2021/06/27 08:11:05;;;;;;;3.78;1.40;;;23.00;32.50;;;;;;20526711;28;80254;-71
2021/06/27 08:21:08;;;;;;;4.25;1.55;;;23.20;31.80;;;;;;20539451;28;81069;-72
2021/06/27 08:31:10;;;;;;;2.45;1.20;;;23.30;31.70;;;;;;20550269;28;82357;-71
2021/06/27 08:41:17;;;;;;;2.75;1.25;;;23.40;31.80;;;;;;20548550;28;80394;-71
2021/06/27 08:51:21;;;;;;;2.60;1.05;;;23.60;31.40;;;;;;20548517;28;80651;-73
2021/06/27 09:01:27;;;;;;;3.30;1.63;;;23.70;30.50;;;;;;20546248;28;81588;-72
2021/06/27 09:11:30;;;;;;;4.20;1.83;;;23.90;30.60;;;;;;20545138;28;81901;-70
2021/06/27 09:21:33;;;;;;;3.97;1.42;;;24.20;30.80;;;;;;20547723;28;82539;-70
2021/06/27 09:31:41;;;;;;;2.65;0.88;;;24.40;30.30;;;;;;20549980;28;82632;-69
2021/06/27 09:41:51;;;;;;;4.60;1.65;;;24.90;29.90;;;;;;20541509;28;81328;-68
2021/06/27 09:52:02;;;;;;;2.83;1.42;;;25.30;28.70;;;;;;20524437;28;80961;-70
2021/06/27 10:02:06;;;;;;;6.47;1.75;;;25.90;28.20;;;;;;20529946;28;81128;-70
2021/06/27 10:12:16;;;;;;;1.48;0.73;;;26.40;26.90;;;;;;20539285;28;80551;-71
2021/06/27 10:22:23;;;;;;;2.58;0.85;;;26.90;26.30;;;;;;20545052;28;80930;-71
2021/06/27 10:32:26;;;;;;;2.08;0.80;;;27.40;25.50;;;;;;20548666;28;81720;-71
2021/06/27 10:42:47;;;;;;;2.50;0.63;;;27.40;25.00;;;;;;20541796;28;82372;-71
2021/06/27 10:52:54;;;;;;;3.95;0.82;;;27.70;23.40;;;;;;20542202;28;80688;-70
2021/06/27 11:03:27;;;;;;;3.22;0.50;;;29.00;22.10;;;;;;20544464;28;81699;-71
2021/06/27 11:13:30;;;;;;;2.22;0.70;;;33.00;18.30;;;;;;20525170;28;80710;-72
2021/06/27 11:23:47;;;;;;;4.93;1.88;;;33.60;18.30;;;;;;20530292;28;81390;-72
2021/06/27 11:34:26;;;;;;;3.25;1.50;;;32.80;18.80;;;;;;20526331;28;81106;-71
2021/06/27 11:44:29;;;;;;;4.68;1.77;;;32.70;18.70;;;;;;20504789;28;80530;-71
2021/06/27 11:54:33;;;;;;;2.78;1.38;;;35.50;17.20;;;;;;20529607;28;80508;-72
2021/06/27 12:04:53;;;;;;;3.55;0.93;;;37.60;15.90;;;;;;20532091;28;80968;-72
2021/06/27 12:14:56;;;;;;;2.83;1.65;;;39.10;15.10;;;;;;20533456;28;81184;-72
2021/06/27 12:25:03;;;;;;;3.83;1.55;;;41.00;14.20;;;;;;20536527;28;80682;-72
2021/06/27 12:35:08;;;;;;;1.70;1.13;;;42.20;13.30;;;;;;20528509;28;81233;-70
2021/06/27 12:45:18;;;;;;;2.72;1.20;;;43.00;13.10;;;;;;20511987;28;81192;-71
2021/06/27 12:55:22;;;;;;;4.97;3.50;;;43.10;13.10;;;;;;20509388;28;80742;-71
2021/06/27 13:05:25;;;;;;;3.42;1.35;;;42.70;13.70;;;;;;20521252;28;83003;-70
2021/06/27 13:15:40;;;;;;;1.83;1.00;;;43.50;13.40;;;;;;20513007;28;80915;-71
2021/06/27 13:25:46;;;;;;;1.55;1.10;;;42.60;13.50;;;;;;20514344;28;82368;-71
2021/06/27 13:35:59;;;;;;;1.52;0.82;;;41.40;14.00;;;;;;20513016;28;81230;-70
2021/06/27 13:46:02;;;;;;;3.20;1.58;;;40.00;14.80;;;;;;20525455;28;82298;-71
2021/06/27 13:56:18;;;;;;;2.47;1.02;;;35.60;17.70;;;;;;20546557;28;80528;-71
2021/06/27 14:06:20;;;;;;;1.77;0.80;;;33.50;19.20;;;;;;20557804;28;80743;-68
2021/06/27 14:16:22;;;;;;;3.47;0.82;;;32.90;20.10;;;;;;20551582;28;80810;-75
2021/06/27 14:26:24;;;;;;;2.83;0.73;;;32.20;20.60;;;;;;20535819;28;80752;-73
2021/06/27 14:36:26;;;;;;;4.30;0.50;;;32.20;20.90;;;;;;20550651;28;80975;-75
2021/06/27 14:46:28;;;;;;;2.35;0.60;;;31.90;20.90;;;;;;20556202;28;80366;-73
2021/06/27 14:56:29;;;;;;;4.95;0.70;;;31.80;20.60;;;;;;20552157;28;80478;-73
2021/06/27 15:06:31;;;;;;;1.92;1.30;;;31.50;20.80;;;;;;20542012;28;80822;-69
2021/06/27 15:16:34;;;;;;;2.17;0.60;;;31.20;21.10;;;;;;20510991;28;82799;-68
2021/06/27 15:26:36;;;;;;;2.00;0.70;;;31.10;21.00;;;;;;20545095;28;80603;-70
2021/06/27 15:36:38;;;;;;;1.23;0.65;;;30.80;21.10;;;;;;20531575;28;81391;-68
2021/06/27 15:46:40;;;;;;;5.25;2.00;;;30.50;21.70;;;;;;20534481;28;80747;-68
2021/06/27 15:56:42;;;;;;;5.78;4.20;;;30.20;22.30;;;;;;20531206;28;81465;-69
2021/06/27 16:06:44;;;;;;;6.13;3.58;;;30.30;21.90;;;;;;20539485;28;82641;-68
2021/06/27 16:16:47;;;;;;;4.30;3.17;;;30.40;21.80;;;;;;20530821;28;80922;-69
2021/06/27 16:26:50;;;;;;;10.43;3.60;;;30.50;22.40;;;;;;20523007;28;81174;-68
2021/06/27 16:36:57;;;;;;;4.68;2.45;;;30.30;23.00;;;;;;20532799;28;80497;-68
2021/06/27 16:47:01;;;;;;;4.88;2.60;;;30.20;23.00;;;;;;20538502;28;81294;-68
2021/06/27 16:57:04;;;;;;;4.55;2.67;;;30.30;23.50;;;;;;20545348;28;82773;-69
2021/06/27 17:07:06;;;;;;;2.75;1.80;;;29.70;24.20;;;;;;20539077;28;80873;-69
2021/06/27 17:17:08;;;;;;;3.55;1.13;;;29.50;24.90;;;;;;20541373;28;80993;-68
2021/06/27 17:27:10;;;;;;;1.73;1.10;;;29.30;25.20;;;;;;20545153;28;81070;-68
2021/06/27 17:37:12;;;;;;;2.90;0.90;;;29.30;25.10;;;;;;20542139;28;80623;-68
2021/06/27 17:47:14;;;;;;;1.92;0.80;;;29.20;25.30;;;;;;20525132;28;81268;-67
2021/06/27 17:57:16;;;;;;;4.28;0.90;;;28.90;25.80;;;;;;20547759;28;81124;-67
2021/06/27 18:07:18;;;;;;;6.57;1.20;;;28.60;26.20;;;;;;20548340;28;80375;-70
2021/06/27 18:17:21;;;;;;;3.38;1.17;;;28.40;26.60;;;;;;20572781;28;82397;-69
2021/06/27 18:27:22;;;;;;;3.67;1.27;;;28.30;26.80;;;;;;20533283;28;81598;-70
2021/06/27 18:37:27;;;;;;;3.83;1.08;;;28.30;27.30;;;;;;20562905;28;80484;-70
2021/06/27 18:47:29;;;;;;;2.85;1.60;;;27.90;27.80;;;;;;20529056;28;81832;-69
2021/06/27 18:57:31;;;;;;;3.30;1.75;;;27.70;28.10;;;;;;20541950;28;82343;-70
2021/06/27 19:07:33;;;;;;;7.28;1.73;;;27.50;28.70;;;;;;20528268;28;80597;-68
2021/06/27 19:17:36;;;;;;;4.00;1.40;;;27.50;29.40;;;;;;20538878;28;80786;-70
2021/06/27 19:27:39;;;;;;;6.53;4.15;;;27.40;29.80;;;;;;20543054;28;81090;-69
2021/06/27 19:37:43;;;;;;;16.42;10.02;;;27.30;30.40;;;;;;20537332;28;80879;-67
2021/06/27 19:47:45;;;;;;;9.52;5.22;;;27.20;30.80;;;;;;20531777;28;82650;-67
2021/06/27 19:57:46;;;;;;;7.80;4.40;;;27.00;31.30;;;;;;20529473;28;83864;-68
2021/06/27 20:07:48;;;;;;;4.43;2.75;;;26.90;31.70;;;;;;20523650;28;81624;-68
2021/06/27 20:17:49;;;;;;;12.00;7.47;;;26.70;31.80;;;;;;20533118;28;83763;-71
2021/06/27 20:27:51;;;;;;;7.25;2.50;;;26.60;32.20;;;;;;20546557;28;80949;-66
2021/06/27 20:37:53;;;;;;;2.67;1.80;;;26.40;32.80;;;;;;20549228;28;80762;-68
2021/06/27 20:47:55;;;;;;;8.00;1.88;;;26.20;32.60;;;;;;20542787;28;80753;-67
2021/06/27 20:57:57;;;;;;;23.90;15.80;;;25.90;32.10;;;;;;20558292;28;80542;-67
2021/06/27 21:07:59;;;;;;;22.27;15.07;;;25.80;32.00;;;;;;20534408;28;83825;-68
2021/06/27 21:18:01;;;;;;;6.20;0.88;;;25.60;32.40;;;;;;20542374;28;83442;-67
2021/06/27 21:28:03;;;;;;;5.15;0.73;;;25.50;32.10;;;;;;20552087;28;83202;-67
2021/06/27 21:38:04;;;;;;;6.45;2.45;;;25.30;32.40;;;;;;20563563;28;81563;-68
2021/06/27 21:48:07;;;;;;;3.70;1.95;;;25.10;32.70;;;;;;20540989;28;81649;-70
2021/06/27 21:58:10;;;;;;;2.35;0.45;;;25.00;32.50;;;;;;20540394;28;81283;-71
2021/06/27 22:08:12;;;;;;;1.63;0.50;;;24.80;32.90;;;;;;20542393;28;81338;-71
2021/06/27 22:18:14;;;;;;;1.15;0.50;;;24.60;33.30;;;;;;20542768;28;80989;-70
2021/06/27 22:28:17;;;;;;;4.13;1.85;;;24.50;33.50;;;;;;20548507;28;80817;-71
2021/06/27 22:38:19;;;;;;;0.95;0.40;;;24.30;34.00;;;;;;20537403;28;80416;-68
2021/06/27 22:48:21;;;;;;;1.48;0.40;;;24.10;34.40;;;;;;20555769;28;81013;-69
2021/06/27 22:58:23;;;;;;;2.60;1.10;;;23.90;34.60;;;;;;20533042;28;82033;-68
2021/06/27 23:08:25;;;;;;;1.20;0.50;;;23.90;34.50;;;;;;20543563;28;80258;-68
2021/06/27 23:18:28;;;;;;;1.02;0.43;;;23.60;34.90;;;;;;20543871;28;82449;-67
2021/06/27 23:28:30;;;;;;;2.78;0.77;;;23.40;34.70;;;;;;20544567;28;80991;-69
2021/06/27 23:38:33;;;;;;;3.10;1.13;;;23.20;34.60;;;;;;20546040;28;83041;-67
2021/06/27 23:48:34;;;;;;;3.30;0.57;;;23.00;34.30;;;;;;20536329;28;80174;-68
2021/06/27 23:58:39;;;;;;;3.73;1.07;;;22.90;34.30;;;;;;20554109;28;81583;-67
